M I D A S
Marine Information and Data Acquisition System
Tripno 665 of the Zeeleeuw from 2004-03-11 07:14:48 to 2004-03-11 15:54:52
Back to CruiseResearch ActivitiesStationsMapUnderway DataData graphs

EquipmentUnitsComment
TimeDGPSUTC
LatitudeDGPSDM.mWGS84
LongitudeDGPSDM.mWGS84
TemperatureSBE03/SBE38deg celciusITS90
ConductivitySBE21S/mITS90
SalinitySBE21 Practical Salinity Units
ChlorophylAChelsea fluorimeterg/lCalibrated in Aceton
Missing or incorrect values are displayed as -999
Sea surface data collected by the RV Zeeleeuw from 2004-03-11 07:14:48 to 2004-03-11 15:54:52
Time Latitude Longitude Temperature Conductivity Salinity ChlorophylA
2004-03-11 07:15:49 51°13.592 2°56.109 12.037708 0.064521 0.412068 3.466136
2004-03-11 07:16:49 51°13.592 2°56.109 12.044346 0.064521 0.412076 3.466136
2004-03-11 07:17:50 51°13.591 2°56.109 12.031524 0.064521 0.412084 3.466136
2004-03-11 07:18:50 51°13.611 2°56.047 12.048029 0.064625 0.41274 3.466136
2004-03-11 07:19:50 51°13.649 2°55.926 12.082845 0.064625 0.412731 3.466136
2004-03-11 07:20:50 51°13.667 2°55.786 12.101608 0.064625 0.41278 3.499845
2004-03-11 07:21:50 51°13.686 2°55.776 12.251618 0.064521 0.412108 3.533554
2004-03-11 07:22:48 51°13.743 2°55.721 12.063348 0.064625 0.412764 3.499845
2004-03-11 07:23:49 51°13.844 2°55.624 12.019881 0.064625 0.412731 3.499845
2004-03-11 07:24:56 51°13.992 2°55.516 12.086616 0.064625 0.412764 3.499845
2004-03-11 07:25:56 51°14.131 2°55.416 12.095884 0.064625 0.412764 3.533554
2004-03-11 07:26:56 51°14.267 2°55.258 12.129086 0.064625 0.412772 3.533554
2004-03-11 07:27:56 51°14.395 2°55.016 12.145385 0.064625 0.412699 3.533554
2004-03-11 07:28:56 51°14.478 2°54.769 12.180558 0.064625 0.412756 3.533554
2004-03-11 07:29:55 51°14.562 2°54.545 12.135624 0.064729 0.413526 3.533554
2004-03-11 07:30:56 51°14.673 2°54.248 12.123046 0.064729 0.413526 3.567264
2004-03-11 07:31:54 51°14.789 2°53.939 12.129631 0.064729 0.413731 3.567264
2004-03-11 07:32:54 51°14.905 2°53.612 12.169622 0.064729 0.413657 3.567264
2004-03-11 07:33:56 51°15.027 2°53.271 12.1482 0.064833 0.414502 3.533554
2004-03-11 07:34:56 51°15.133 2°52.929 12.18514 0.064729 0.413845 3.567264
2004-03-11 07:35:56 51°15.233 2°52.575 12.170258 0.064729 0.413911 3.533554
2004-03-11 07:36:54 51°15.33 2°52.233 12.176883 0.064833 0.414732 3.533554
2004-03-11 07:37:56 51°15.402 2°51.847 12.201335 0.064729 0.41428 3.600973
2004-03-11 07:38:56 51°15.407 2°51.456 12.192399 0.064833 0.414888 3.600973
2004-03-11 07:39:56 51°15.386 2°51.064 12.214805 0.064833 0.414962 3.600973
2004-03-11 07:40:54 51°15.343 2°50.689 12.197752 0.064833 0.414855 3.567264
2004-03-11 07:41:56 51°15.292 2°50.292 12.169032 0.064833 0.414773 3.567264
2004-03-11 07:42:56 51°15.247 2°49.905 12.194486 0.064937 0.415454 3.600973
2004-03-11 07:43:56 51°15.204 2°49.517 5.075582 2.882608 26.74782 12.668802
2004-03-11 07:44:56 51°15.161 2°49.13 4.873973 2.934526 30.02054 6.803366
2004-03-11 07:45:56 51°15.117 2°48.744 4.846985 2.986105 30.729805 6.702238
2004-03-11 07:46:56 51°15.076 2°48.356 4.819426 2.985263 30.768714 6.702238
2004-03-11 07:47:56 51°15.035 2°47.966 4.804574 2.883798 29.636702 6.499982
2004-03-11 07:48:56 51°14.991 2°47.578 4.789311 2.942844 30.327765 6.634819
2004-03-11 07:49:56 51°14.95 2°47.193 4.793636 2.95137 30.440014 6.162888
2004-03-11 07:50:56 51°14.907 2°46.814 4.790125 2.923688 30.131361 6.331435
2004-03-11 07:51:56 51°14.868 2°46.437 4.792059 2.904216 29.903691 6.533691
2004-03-11 07:52:56 51°14.825 2°46.058 4.80086 2.971685 30.68359 6.129178
2004-03-11 07:53:56 51°14.807 2°45.663 4.79562 2.938212 30.283059 6.129178
2004-03-11 07:54:56 51°14.766 2°45.266 4.761931 2.842334 29.230986 5.657247
2004-03-11 07:55:56 51°14.724 2°44.871 4.771551 2.951791 30.489006 5.657247
2004-03-11 07:56:56 51°14.682 2°44.477 4.779287 2.957264 30.544983 5.522409
2004-03-11 07:57:56 51°14.634 2°44.086 4.782849 2.975369 30.749118 5.859503
2004-03-11 07:58:54 51°14.592 2°43.707 4.78982 2.954001 30.500528 5.623537
2004-03-11 07:59:56 51°14.544 2°43.299 4.797146 2.958843 30.552508 5.724665
2004-03-11 08:00:56 51°14.495 2°42.903 4.807524 2.979685 30.781324 5.758375
2004-03-11 08:01:56 51°14.447 2°42.507 4.81078 2.929371 30.203978 5.926922
2004-03-11 08:02:56 51°14.406 2°42.111 4.810424 2.95958 30.548015 6.533691
2004-03-11 08:03:56 51°14.368 2°41.714 4.808491 2.956527 30.514033 6.297725
2004-03-11 08:04:54 51°14.335 2°41.33 4.81729 2.978001 30.749133 6.365144
2004-03-11 08:05:56 51°14.3 2°40.918 4.819833 2.972422 30.687947 6.264016
2004-03-11 08:06:56 51°14.266 2°40.521 4.827919 2.983369 30.8128 5.994341
2004-03-11 08:07:56 51°14.235 2°40.125 4.821003 2.909268 29.968991 6.297725
2004-03-11 08:08:56 51°14.205 2°39.727 4.825376 2.948633 30.415266 5.657247
2004-03-11 08:09:56 51°14.172 2°39.334 4.839563 2.952422 30.449593 6.264016
2004-03-11 08:10:56 51°14.139 2°38.943 4.861014 2.947264 30.370064 6.432563
2004-03-11 08:11:54 51°14.109 2°38.555 4.865232 2.972527 30.654397 6.398853
2004-03-11 08:12:56 51°14.035 2°38.159 4.874887 3.020002 31.194889 6.129178
2004-03-11 08:13:54 51°13.935 2°37.809 4.890333 2.973368 30.647042 6.702238
2004-03-11 08:14:56 51°13.833 2°37.425 4.890942 2.987263 30.798775 6.735947
2004-03-11 08:15:56 51°13.736 2°37.057 4.918774 2.991789 30.837347 6.668529
2004-03-11 08:16:56 51°13.641 2°36.685 4.961159 3.002947 30.931077 7.814648
2004-03-11 08:17:56 51°13.545 2°36.312 4.989924 3.022212 31.121789 8.118033
2004-03-11 08:18:56 51°13.452 2°35.94 5.017104 3.013369 30.996777 7.74723
2004-03-11 08:19:54 51°13.354 2°35.587 5.040623 3.13739 32.380899 8.387708
2004-03-11 08:20:54 51°13.229 2°35.245 5.054254 3.144971 32.45306 8.28658
2004-03-11 08:21:56 51°13.065 2°34.935 5.085104 3.151815 32.50911 8.387708
2004-03-11 08:22:56 51°12.875 2°34.697 5.088547 3.156343 32.543778 8.387708
2004-03-11 08:23:56 51°12.686 2°34.465 5.088902 3.156132 32.543077 8.994477
2004-03-11 08:24:56 51°12.518 2°34.28 5.07857 3.1555 32.538419 9.500118
2004-03-11 08:25:56 51°12.428 2°34.253 5.083584 3.155501 32.540122 9.163024
2004-03-11 08:26:56 51°12.374 2°34.236 5.071682 3.154553 32.535262 8.960768
2004-03-11 08:27:56 51°12.336 2°34.212 5.073911 3.153711 32.527347 9.028187
2004-03-11 08:28:56 51°12.307 2°34.179 5.089307 3.15371 32.520538 9.533828
2004-03-11 08:29:56 51°12.274 2°34.139 5.090623 3.153816 32.514083 9.196734
2004-03-11 08:30:56 51°12.224 2°34.079 5.077304 3.153184 32.511976 9.668665
2004-03-11 08:31:56 51°12.173 2°34.01 5.070314 3.152236 32.511366 9.803503
2004-03-11 08:32:56 51°12.126 2°33.931 5.06307 3.151184 32.507853 9.601247
2004-03-11 08:33:56 51°12.087 2°33.839 5.061297 3.150552 32.503191 9.938341
2004-03-11 08:34:56 51°12.055 2°33.742 5.059422 3.150341 32.501637 9.702375
2004-03-11 08:35:56 51°12.021 2°33.653 5.065907 3.151394 32.512811 9.769794
2004-03-11 08:36:56 51°11.987 2°33.565 5.074164 3.148972 32.4775 9.264153
2004-03-11 08:37:56 51°11.949 2°33.481 5.081559 3.15529 32.542827 9.466409
2004-03-11 08:38:56 51°11.909 2°33.397 5.091535 3.157712 32.561108 9.028187
2004-03-11 08:39:56 51°11.867 2°33.314 5.097662 3.160344 32.581785 9.061896
2004-03-11 08:40:56 51°11.824 2°33.232 5.106421 3.161713 32.590591 9.129315
2004-03-11 08:41:56 51°11.782 2°33.151 5.106117 3.162345 32.597802 9.668665
2004-03-11 08:42:54 51°11.741 2°33.075 5.107079 3.162976 32.601602 9.264153
2004-03-11 08:43:56 51°11.697 2°32.993 5.110066 3.163082 32.602804 9.230443
2004-03-11 08:44:56 51°11.655 2°32.915 5.104345 3.163082 32.604509 9.061896
2004-03-11 08:45:56 51°11.61 2°32.845 5.104345 3.162661 32.599702 9.129315
2004-03-11 08:46:56 51°11.558 2°32.781 5.107484 3.162239 32.594895 9.331571
2004-03-11 08:47:56 51°11.506 2°32.724 5.103332 3.162029 32.59164 9.668665
2004-03-11 08:48:56 51°11.454 2°32.673 5.102877 3.161713 32.589739 9.466409
2004-03-11 08:49:56 51°11.403 2°32.617 5.099029 3.161186 32.584583 9.500118
2004-03-11 08:50:56 51°11.354 2°32.55 5.09356 3.160133 32.578529 9.736084
2004-03-11 08:51:54 51°11.31 2°32.475 5.091586 3.159186 32.571972 9.668665
2004-03-11 08:52:56 51°11.269 2°32.388 5.089712 3.15887 32.571775 10.039469
2004-03-11 08:53:54 51°11.229 2°32.31 5.087383 3.158343 32.56832 9.870922
2004-03-11 08:54:56 51°11.2 2°32.208 5.085205 3.158133 32.565916 9.904631
2004-03-11 08:55:56 51°11.195 2°32.099 5.087636 3.157817 32.565718 9.837212
2004-03-11 08:56:56 51°11.202 2°32.005 5.082014 3.157606 32.564165 9.736084
2004-03-11 08:57:56 51°11.213 2°31.926 5.086775 3.152973 32.511273 9.668665
2004-03-11 08:58:56 51°11.246 2°31.854 5.092649 3.159081 32.575883 9.567537
2004-03-11 08:59:56 51°11.291 2°31.909 5.106623 3.16245 32.59389 9.365281
2004-03-11 09:00:56 51°11.233 2°31.971 5.106522 3.163082 32.601952 9.264153
2004-03-11 09:01:56 51°11.168 2°31.959 5.098877 3.162555 32.600205 9.500118
2004-03-11 09:02:56 51°11.104 2°31.927 5.093105 3.160976 32.588997 9.028187
2004-03-11 09:03:56 51°11.042 2°31.887 5.089155 3.159291 32.575731 8.893349
2004-03-11 09:04:56 51°10.983 2°31.84 5.083989 3.157817 32.563162 8.994477
2004-03-11 09:05:56 51°10.925 2°31.784 5.073201 3.155816 32.548838 8.927059
2004-03-11 09:06:56 51°10.869 2°31.731 5.06003 3.152868 32.527093 8.151742
2004-03-11 09:07:56 51°10.812 2°31.683 5.059422 3.151289 32.514163 8.185452
2004-03-11 09:08:56 51°10.754 2°31.638 5.058409 3.151184 32.513811 8.792221
2004-03-11 09:09:56 51°10.697 2°31.592 5.058409 3.151184 32.513811 8.421418
2004-03-11 09:10:56 51°10.64 2°31.544 5.060942 3.150973 32.513109 8.85964
2004-03-11 09:11:56 51°10.585 2°31.495 5.054964 3.150762 32.511555 8.421418
2004-03-11 09:12:56 51°10.529 2°31.445 5.057548 3.151078 32.516014 8.85964
2004-03-11 09:13:56 51°10.476 2°31.385 5.055673 3.150973 32.515663 8.82593
2004-03-11 09:14:54 51°10.426 2°31.326 5.065451 3.151815 32.521028 9.028187
2004-03-11 09:15:56 51°10.373 2°31.263 5.067123 3.152552 32.525189 8.556255
2004-03-11 09:16:56 51°10.326 2°31.191 5.065248 3.153184 32.528998 8.657383
2004-03-11 09:17:56 51°10.283 2°31.111 5.067224 3.153184 32.528998 8.792221
2004-03-11 09:18:56 51°10.24 2°31.032 5.066363 3.152974 32.528296 8.353999
2004-03-11 09:19:56 51°10.194 2°30.958 5.067123 3.153184 32.528998 8.893349
2004-03-11 09:20:56 51°10.151 2°30.879 5.068997 3.153184 32.528146 8.927059
2004-03-11 09:21:56 51°10.11 2°30.793 5.069453 3.153921 32.535712 8.82593
2004-03-11 09:22:56 51°10.07 2°30.706 5.072492 3.154764 32.543629 9.938341
2004-03-11 09:23:56 51°10.028 2°30.619 5.073353 3.155079 32.543829 9.769794
2004-03-11 09:24:56 51°9.988 2°30.533 5.067528 3.154237 32.535913 9.061896
2004-03-11 09:25:56 51°9.968 2°30.434 5.05851 3.151499 32.514865 8.893349
2004-03-11 09:26:56 51°9.965 2°30.33 5.056838 3.150025 32.503986 8.927059
2004-03-11 09:27:56 51°9.962 2°30.223 5.059878 3.150657 32.511203 8.691093
2004-03-11 09:28:56 51°9.964 2°30.114 5.062107 3.152026 32.523433 8.82593
2004-03-11 09:29:56 51°9.975 2°30.012 5.063273 3.153184 32.535812 8.85964
2004-03-11 09:30:56 51°9.979 2°29.925 5.066211 3.154027 32.541174 9.028187
2004-03-11 09:31:56 51°9.975 2°29.846 5.072391 3.155079 32.547236 8.421418
2004-03-11 09:32:56 51°9.965 2°29.775 5.085002 3.156238 32.5545 8.252871
2004-03-11 09:33:56 51°9.953 2°29.711 5.094067 3.158343 32.566616 8.252871
2004-03-11 09:34:56 51°9.938 2°29.652 5.102522 3.159818 32.574924 8.28658
2004-03-11 09:35:56 51°9.94 2°29.549 5.105813 3.161397 32.586986 8.421418
2004-03-11 09:36:56 51°9.991 2°29.509 5.102117 3.163082 32.603656 8.387708
2004-03-11 09:37:56 51°10.024 2°29.519 5.098675 3.163292 32.607765 7.780939
2004-03-11 09:38:56 51°10.044 2°29.531 5.099383 3.161818 32.596055 7.949486
2004-03-11 09:39:56 51°10.061 2°29.531 5.100244 3.16245 32.613501 8.084324
2004-03-11 09:40:56 51°10.075 2°29.521 5.100143 3.163187 32.610827 7.780939
2004-03-11 09:41:56 51°10.088 2°29.495 5.098826 3.162345 32.599507 7.983195
2004-03-11 09:42:56 51°10.1 2°29.456 5.105206 3.162345 32.598654 8.185452
2004-03-11 09:43:56 51°10.108 2°29.403 5.109357 3.162555 32.5985 8.421418
2004-03-11 09:44:56 51°10.108 2°29.337 5.115583 3.164556 32.60258 8.219161
2004-03-11 09:45:56 51°10.096 2°29.266 5.112698 3.163082 32.592578 7.983195
2004-03-11 09:46:56 51°10.068 2°29.193 5.11285 3.163713 32.606604 7.780939
2004-03-11 09:47:56 51°10.001 2°29.143 5.114925 3.164029 32.610209 7.814648
2004-03-11 09:48:56 51°9.947 2°29.135 5.120088 3.164977 32.614202 7.544973
2004-03-11 09:49:56 51°9.909 2°29.125 5.122062 3.165082 32.613699 7.039332
2004-03-11 09:50:56 51°9.882 2°29.112 5.122568 3.164661 32.608041 7.646101
2004-03-11 09:51:56 51°9.873 2°29.149 5.114824 3.164135 32.605444 7.679811
2004-03-11 09:52:56 51°9.962 2°29.327 5.112901 3.164029 32.605094 7.71352
2004-03-11 09:53:56 51°10.087 2°29.582 5.096599 3.161292 32.586636 8.219161
2004-03-11 09:54:56 51°10.217 2°29.839 5.090421 3.157922 32.557549 8.657383
2004-03-11 09:55:56 51°10.353 2°30.091 5.084698 3.157396 32.554946 8.691093
2004-03-11 09:56:56 51°10.488 2°30.342 5.083686 3.156238 32.545131 8.927059
2004-03-11 09:57:56 51°10.623 2°30.594 5.082926 3.155711 32.538269 8.85964
2004-03-11 09:58:56 51°10.757 2°30.846 5.08794 3.154658 32.529654 8.994477
2004-03-11 09:59:56 51°10.892 2°31.098 5.096092 3.158028 32.556197 9.163024
2004-03-11 10:00:56 51°11.028 2°31.35 5.097814 3.157501 32.549336 8.758512
2004-03-11 10:01:56 51°11.165 2°31.603 5.098573 3.157712 32.550037 9.028187
2004-03-11 10:02:56 51°11.302 2°31.856 5.098118 3.157396 32.546432 9.297862
2004-03-11 10:03:56 51°11.438 2°32.109 5.078824 3.154974 32.527303 9.803503
2004-03-11 10:04:56 51°11.573 2°32.364 5.053342 3.15013 32.485622 9.668665
2004-03-11 10:05:56 51°11.71 2°32.616 5.024201 3.142023 32.425331 9.668665
2004-03-11 10:06:56 51°11.846 2°32.868 5.007065 3.133916 32.362412 9.736084
2004-03-11 10:07:56 51°11.982 2°33.12 4.995401 3.128335 32.305418 9.331571
2004-03-11 10:08:56 51°12.117 2°33.372 4.985207 3.125598 32.288532 9.230443
2004-03-11 10:09:55 51°12.247 2°33.627 4.997836 3.126756 32.301773 9.904631
2004-03-11 10:10:56 51°12.371 2°33.903 4.990583 3.128441 32.317641 9.365281
2004-03-11 10:11:56 51°12.492 2°34.175 4.982366 3.127493 32.313591 9.230443
2004-03-11 10:12:56 51°12.614 2°34.449 4.969328 3.126756 32.315341 9.365281
2004-03-11 10:13:56 51°12.736 2°34.724 4.956541 3.125598 32.312275 9.567537
2004-03-11 10:14:56 51°12.857 2°34.999 4.932381 3.124124 32.311534 9.163024
2004-03-11 10:15:56 51°12.982 2°35.269 4.923852 3.120439 32.285478 8.623674
2004-03-11 10:16:55 51°13.105 2°35.535 4.909888 3.115701 32.243105 8.85964
2004-03-11 10:17:56 51°13.223 2°35.817 4.896733 3.106015 32.149968 8.623674
2004-03-11 10:18:56 51°13.339 2°36.092 4.892923 3.102856 32.117179 8.455127
2004-03-11 10:19:56 51°13.455 2°36.364 4.884236 3.099171 32.080894 8.758512
2004-03-11 10:20:56 51°13.572 2°36.634 4.8788 3.091907 32.00867 8.893349
2004-03-11 10:21:56 51°13.672 2°36.923 4.874024 3.088432 31.973096 8.758512
2004-03-11 10:22:56 51°13.765 2°37.216 4.873363 3.084958 31.934155 8.387708
2004-03-11 10:23:56 51°13.854 2°37.511 4.878038 3.08001 31.874987 7.74723
2004-03-11 10:24:56 51°13.931 2°37.808 4.874735 3.075798 31.829305 7.882067
2004-03-11 10:25:56 51°13.988 2°38.113 4.868993 3.075588 31.823543 7.646101
2004-03-11 10:26:56 51°14.022 2°38.432 4.862539 3.069798 31.768166 8.488836
2004-03-11 10:27:56 51°13.998 2°38.757 4.858981 3.067903 31.751499 8.657383
2004-03-11 10:28:56 51°13.813 2°38.933 4.860099 3.064112 31.707291 8.724802
2004-03-11 10:29:56 51°13.576 2°38.856 4.849425 3.058427 31.653925 8.522546
2004-03-11 10:30:56 51°13.351 2°38.676 4.850238 3.059691 31.670052 9.500118
2004-03-11 10:31:56 51°13.135 2°38.463 4.846578 3.064323 31.723909 9.837212
2004-03-11 10:32:56 51°12.922 2°38.248 4.845816 3.069482 31.784647 9.196734
2004-03-11 10:33:56 51°12.705 2°38.037 4.851662 3.073693 31.830357 8.927059
2004-03-11 10:34:56 51°12.49 2°37.826 4.853949 3.077694 31.874499 8.792221
2004-03-11 10:35:56 51°12.276 2°37.611 4.858524 3.079905 31.897302 8.691093
2004-03-11 10:36:56 51°12.061 2°37.396 4.88007 3.088748 31.986822 8.589965
2004-03-11 10:37:56 51°11.847 2°37.183 4.894143 3.103278 32.128767 8.084324
2004-03-11 10:38:56 51°11.633 2°36.971 4.899578 3.106541 32.161921 8.758512
2004-03-11 10:39:56 51°11.421 2°36.758 4.905317 3.107278 32.164437 8.556255
2004-03-11 10:40:56 51°11.209 2°36.544 4.911411 3.1077 32.165029 8.724802
2004-03-11 10:41:56 51°10.996 2°36.332 4.914661 3.107805 32.160311 9.634956
2004-03-11 10:42:56 51°10.783 2°36.122 4.921059 3.107699 32.157413 9.837212
2004-03-11 10:43:56 51°10.598 2°35.962 4.923903 3.108436 32.15993 9.803503
2004-03-11 10:44:55 51°10.506 2°35.862 4.923497 3.10812 32.15124 9.702375
2004-03-11 10:45:56 51°10.46 2°35.765 4.924055 3.107173 32.142931 10.309144
2004-03-11 10:46:56 51°10.415 2°35.67 4.928015 3.106752 32.137266 10.106888
2004-03-11 10:47:56 51°10.37 2°35.586 4.934716 3.106646 32.132681 9.668665
2004-03-11 10:48:56 51°10.326 2°35.509 4.939691 3.106752 32.127972 9.095606
2004-03-11 10:49:56 51°10.277 2°35.43 4.941772 3.107173 32.126035 10.039469
2004-03-11 10:50:56 51°10.229 2°35.35 4.93964 3.106857 32.12411 9.938341
2004-03-11 10:51:56 51°10.188 2°35.265 4.944919 3.106857 32.123266 9.4327
2004-03-11 10:52:56 51°10.151 2°35.177 4.950096 3.107173 32.123502 8.85964
2004-03-11 10:53:56 51°10.116 2°35.089 4.953395 3.10812 32.12843 8.387708
2004-03-11 10:54:56 51°10.084 2°34.999 4.953091 3.108963 32.134686 8.084324
2004-03-11 10:55:56 51°10.052 2°34.905 4.958926 3.110331 32.149495 7.882067
2004-03-11 10:56:56 51°10.017 2°34.813 4.966741 3.112016 32.161158 7.410136
2004-03-11 10:57:56 51°9.983 2°34.72 4.963443 3.11349 32.176323 7.073042
2004-03-11 10:58:56 51°9.948 2°34.631 4.971358 3.11528 32.191719 7.005623
2004-03-11 10:59:56 51°9.91 2°34.544 4.976228 3.117596 32.212284 6.938204
2004-03-11 11:00:56 51°9.873 2°34.457 4.981402 3.119281 32.229853 6.904494
2004-03-11 11:01:56 51°9.836 2°34.37 4.987185 3.121808 32.25028 7.511264
2004-03-11 11:02:56 51°9.799 2°34.282 4.995655 3.124124 32.270833 7.511264
2004-03-11 11:03:56 51°9.761 2°34.196 4.999661 3.126019 32.285721 8.28658
2004-03-11 11:04:56 51°9.721 2°34.111 5.00458 3.127177 32.294723 8.084324
2004-03-11 11:05:56 51°9.682 2°34.027 5.009448 3.127914 32.299758 8.219161
2004-03-11 11:06:56 51°9.646 2°33.938 4.982468 3.124334 32.260543 8.387708
2004-03-11 11:07:56 51°9.606 2°33.853 4.939387 3.097802 31.999524 7.679811
2004-03-11 11:08:56 51°9.562 2°33.771 4.908771 3.077798 31.805295 7.207879
2004-03-11 11:09:56 51°9.517 2°33.695 4.892923 3.066428 31.698721 6.634819
2004-03-11 11:10:56 51°9.468 2°33.627 4.875751 3.056743 31.605497 6.702238
2004-03-11 11:11:54 51°9.419 2°33.569 4.864267 3.053479 31.578168 6.803366
2004-03-11 11:12:56 51°9.365 2°33.515 4.856287 3.049689 31.546471 6.634819
2004-03-11 11:13:56 51°9.316 2°33.449 4.84546 3.047057 31.522189 6.264016
2004-03-11 11:14:56 51°9.277 2°33.36 4.836309 3.045268 31.514179 6.702238
2004-03-11 11:15:56 51°9.247 2°33.254 4.834377 3.045163 31.515467 6.803366
2004-03-11 11:16:56 51°9.224 2°33.151 4.836614 3.045163 31.517129 6.769657
2004-03-11 11:17:56 51°9.198 2°33.054 4.832749 3.044215 31.505458 6.735947
2004-03-11 11:18:56 51°9.097 2°32.993 4.828275 3.042215 31.485896 6.129178
2004-03-11 11:19:56 51°9.001 2°33.125 4.83458 3.039794 31.454878 6.5674
2004-03-11 11:20:56 51°8.892 2°33.312 4.82563 3.04211 31.488843 6.904494
2004-03-11 11:21:56 51°8.781 2°33.516 4.868078 3.054006 31.612496 6.938204
2004-03-11 11:22:56 51°8.682 2°33.728 4.888707 3.070956 31.772213 7.814648
2004-03-11 11:23:56 51°8.591 2°33.819 4.874329 3.07064 31.762745 9.028187
2004-03-11 11:24:56 51°8.515 2°33.819 4.86696 3.066744 31.728214 9.331571
2004-03-11 11:25:56 51°8.448 2°33.79 4.863758 3.062638 31.689592 9.668665
2004-03-11 11:26:56 51°8.389 2°33.734 4.853034 3.055374 31.608994 9.331571
2004-03-11 11:27:56 51°8.338 2°33.653 4.847239 3.049058 31.544234 9.39899
2004-03-11 11:28:56 51°8.294 2°33.564 4.842918 3.047268 31.532075 9.837212
2004-03-11 11:29:56 51°8.252 2°33.477 4.848612 3.048637 31.5469 10.106888
2004-03-11 11:30:56 51°8.214 2°33.385 4.854203 3.048005 31.536349 9.634956
2004-03-11 11:31:56 51°8.178 2°33.293 4.859134 3.048531 31.534059 9.601247
2004-03-11 11:32:56 51°8.142 2°33.204 4.86569 3.052005 31.569632 9.061896
2004-03-11 11:33:56 51°8.105 2°33.116 4.868129 3.055269 31.603626 9.196734
2004-03-11 11:34:56 51°8.07 2°33.027 4.870517 3.05769 31.627155 9.668665
2004-03-11 11:35:56 51°8.035 2°32.939 4.874989 3.057901 31.626231 9.668665
2004-03-11 11:36:56 51°8.001 2°32.849 4.87255 3.059164 31.639844 9.39899
2004-03-11 11:37:56 51°7.968 2°32.758 4.877936 3.060533 31.653829 9.061896
2004-03-11 11:38:56 51°7.938 2°32.666 4.876259 3.060217 31.651884 9.061896
2004-03-11 11:39:56 51°7.91 2°32.572 4.877174 3.060849 31.65494 9.129315
2004-03-11 11:40:56 51°7.887 2°32.477 4.878292 3.062744 31.677444 9.769794
2004-03-11 11:41:56 51°7.865 2°32.381 4.881594 3.063375 31.683 9.837212
2004-03-11 11:42:56 51°7.841 2°32.288 4.889926 3.064533 31.688735 9.297862
2004-03-11 11:43:56 51°7.815 2°32.195 4.895463 3.066112 31.70095 9.061896
2004-03-11 11:44:56 51°7.786 2°32.105 4.90039 3.066744 31.703166 8.927059
2004-03-11 11:45:56 51°7.757 2°32.016 4.903743 3.066849 31.701867 8.927059
2004-03-11 11:46:56 51°7.73 2°31.925 4.906688 3.066744 31.696493 8.455127
2004-03-11 11:47:56 51°7.707 2°31.832 4.91131 3.068323 31.709537 8.691093
2004-03-11 11:48:56 51°7.688 2°31.737 4.91654 3.072113 31.749513 8.994477
2004-03-11 11:49:56 51°7.676 2°31.644 4.919333 3.075272 31.783941 9.634956
2004-03-11 11:50:56 51°7.671 2°31.554 4.92243 3.07664 31.79624 9.331571
2004-03-11 11:51:56 51°7.67 2°31.461 4.925629 3.077693 31.804928 9.702375
2004-03-11 11:52:56 51°7.669 2°31.366 4.929792 3.077272 31.797607 9.365281
2004-03-11 11:53:56 51°7.664 2°31.279 4.93299 3.076114 31.781031 8.960768
2004-03-11 11:54:56 51°7.653 2°31.201 4.942483 3.075903 31.771943 8.893349
2004-03-11 11:55:56 51°7.662 2°31.084 4.949436 3.076851 31.771911 9.028187
2004-03-11 11:56:56 51°7.725 2°31.062 4.956998 3.079798 31.791378 8.85964
2004-03-11 11:57:56 51°7.753 2°31.14 4.945681 3.080114 31.805843 8.28658
2004-03-11 11:58:56 51°7.764 2°31.215 4.943447 3.079483 31.804478 8.522546
2004-03-11 11:59:56 51°7.772 2°31.289 4.936036 3.079272 31.807923 8.589965
2004-03-11 12:00:56 51°7.773 2°31.361 4.931823 3.077693 31.79406 8.82593
2004-03-11 12:01:56 51°7.772 2°31.433 4.927457 3.076114 31.780195 9.028187
2004-03-11 12:02:56 51°7.775 2°31.505 4.924614 3.074429 31.763455 9.061896
2004-03-11 12:03:56 51°7.774 2°31.578 4.921364 3.073482 31.755968 9.129315
2004-03-11 12:04:56 51°7.766 2°31.651 4.92045 3.073061 31.755331 9.196734
2004-03-11 12:05:56 51°7.76 2°31.726 4.919688 3.072745 31.751722 9.230443
2004-03-11 12:06:56 51°7.756 2°31.803 4.914611 3.07285 31.75376 8.927059
2004-03-11 12:07:56 51°7.749 2°31.883 4.908466 3.073692 31.770069 9.331571
2004-03-11 12:08:56 51°7.749 2°31.962 4.909126 3.074324 31.779798 9.769794
2004-03-11 12:09:56 51°7.768 2°32.035 4.917454 3.073271 31.763585 9.230443
2004-03-11 12:10:56 51°7.787 2°32.111 4.907704 3.07285 31.758771 8.994477
2004-03-11 12:11:56 51°7.807 2°32.19 4.901355 3.072219 31.75907 9.702375
2004-03-11 12:12:56 51°7.825 2°32.27 4.898613 3.071061 31.750008 9.736084
2004-03-11 12:13:56 51°7.841 2°32.35 4.892873 3.070324 31.744923 9.736084
2004-03-11 12:14:56 51°7.857 2°32.43 4.887285 3.068639 31.73151 9.736084
2004-03-11 12:15:56 51°7.873 2°32.51 4.88571 3.066113 31.707627 9.837212
2004-03-11 12:16:56 51°7.891 2°32.589 4.881086 3.064954 31.698556 9.803503
2004-03-11 12:17:56 51°7.915 2°32.661 4.876209 3.065165 31.704303 9.803503
2004-03-11 12:18:56 51°7.952 2°32.719 4.876717 3.064744 31.700322 9.533828
2004-03-11 12:19:56 51°7.993 2°32.774 4.875853 3.064218 31.694301 9.567537
2004-03-11 12:20:56 51°8.031 2°32.833 4.875853 3.063059 31.681056 9.533828
2004-03-11 12:21:56 51°8.066 2°32.898 4.877022 3.062954 31.681521 9.736084
2004-03-11 12:22:56 51°8.099 2°32.967 4.872245 3.065481 31.707081 9.601247
2004-03-11 12:23:56 51°8.131 2°33.038 4.873109 3.066744 31.725708 10.039469
2004-03-11 12:24:56 51°8.162 2°33.11 4.870619 3.066744 31.728214 9.938341
2004-03-11 12:25:56 51°8.194 2°33.181 4.870416 3.065586 31.715801 9.39899
2004-03-11 12:26:56 51°8.226 2°33.251 4.865842 3.063481 31.695053 9.331571
2004-03-11 12:27:56 51°8.256 2°33.322 4.86447 3.062954 31.689031 9.769794
2004-03-11 12:28:56 51°8.286 2°33.397 4.864165 3.06327 31.694314 9.634956
2004-03-11 12:29:56 51°8.311 2°33.478 4.864267 3.063481 31.699228 9.601247
2004-03-11 12:30:56 51°8.334 2°33.563 4.869399 3.064112 31.70395 9.601247
2004-03-11 12:31:56 51°8.354 2°33.648 4.863758 3.064533 31.707098 9.702375
2004-03-11 12:32:56 51°8.369 2°33.735 4.868332 3.064849 31.709041 9.702375
2004-03-11 12:33:56 51°8.38 2°33.822 4.864673 3.06506 31.715626 9.803503
2004-03-11 12:34:56 51°8.383 2°33.891 4.867163 3.065586 31.719978 9.634956
2004-03-11 12:35:56 51°8.383 2°33.939 4.86696 3.065586 31.717472 9.264153
2004-03-11 12:36:56 51°8.388 2°33.966 4.869095 3.066113 31.722659 8.927059
2004-03-11 12:37:56 51°8.399 2°33.981 4.876158 3.066007 31.721454 9.331571
2004-03-11 12:38:56 51°8.434 2°33.987 4.879969 3.066744 31.723201 8.960768
2004-03-11 12:39:56 51°8.481 2°33.966 4.880477 3.067271 31.72421 8.927059
2004-03-11 12:40:56 51°8.519 2°33.94 4.876056 3.068323 31.738759 8.85964
2004-03-11 12:41:56 51°8.552 2°33.921 4.878546 3.070008 31.758864 9.129315
2004-03-11 12:42:56 51°8.581 2°33.907 4.881442 3.073166 31.791649 8.994477
2004-03-11 12:43:56 51°8.607 2°33.896 4.884694 3.075588 31.81349 8.994477
2004-03-11 12:44:56 51°8.632 2°33.884 4.879003 3.077483 31.840199 9.163024
2004-03-11 12:45:56 51°8.66 2°33.859 4.877022 3.078009 31.852093 9.466409
2004-03-11 12:46:56 51°8.683 2°33.816 4.882611 3.07822 31.852825 8.589965
2004-03-11 12:47:56 51°8.69 2°33.76 4.883728 3.077693 31.843446 8.623674
2004-03-11 12:48:56 51°8.679 2°33.707 4.87946 3.077588 31.841403 8.252871
2004-03-11 12:49:56 51°8.656 2°33.667 4.874379 3.077062 31.839572 8.589965
2004-03-11 12:50:56 51°8.625 2°33.646 4.869654 3.07643 31.837373 8.556255
2004-03-11 12:51:56 51°8.59 2°33.648 4.874481 3.075904 31.834702 8.691093
2004-03-11 12:52:56 51°8.559 2°33.665 4.879105 3.076009 31.8292 8.623674
2004-03-11 12:53:56 51°8.535 2°33.699 4.881798 3.076325 31.8303 8.353999
2004-03-11 12:54:56 51°8.522 2°33.747 4.888656 3.077799 31.841298 8.657383
2004-03-11 12:55:56 51°8.527 2°33.805 4.903031 3.078851 31.844961 8.724802
2004-03-11 12:56:56 51°8.637 2°33.954 4.906739 3.080009 31.842286 8.118033
2004-03-11 12:57:56 51°8.786 2°34.23 4.868536 3.078957 31.84868 8.758512
2004-03-11 12:58:56 51°8.924 2°34.529 4.865232 3.078746 31.865562 8.994477
2004-03-11 12:59:56 51°9.059 2°34.829 4.86508 3.080747 31.892661 8.320289
2004-03-11 13:00:56 51°9.194 2°35.13 4.865842 3.080852 31.895547 8.320289
2004-03-11 13:01:56 51°9.32 2°35.444 4.876666 3.082431 31.906066 8.016905
2004-03-11 13:02:56 51°9.44 2°35.763 4.88007 3.083589 31.915122 7.74723
2004-03-11 13:03:56 51°9.553 2°36.086 4.864114 3.076957 31.84843 7.780939
2004-03-11 13:04:56 51°9.657 2°36.417 4.863962 3.069692 31.767798 7.342717
2004-03-11 13:05:56 51°9.761 2°36.75 4.861675 3.070008 31.770576 7.477554
2004-03-11 13:06:56 51°9.867 2°37.082 4.838902 3.062112 31.691919 7.410136
2004-03-11 13:07:56 51°9.974 2°37.415 4.831885 3.052006 31.592104 6.870785
2004-03-11 13:08:56 51°10.083 2°37.748 4.831783 3.046636 31.530668 6.837076
2004-03-11 13:09:56 51°10.191 2°38.082 4.830258 3.041583 31.48116 6.735947
2004-03-11 13:10:56 51°10.296 2°38.42 4.82558 3.041057 31.472648 6.634819
2004-03-11 13:11:56 51°10.401 2°38.756 4.830461 3.03632 31.419286 6.365144
2004-03-11 13:12:56 51°10.507 2°39.092 4.828783 3.030003 31.351185 6.162888
2004-03-11 13:13:56 51°10.61 2°39.43 4.873109 3.041057 31.455229 6.297725
2004-03-11 13:14:56 51°10.711 2°39.768 4.867316 3.054006 31.578365 6.634819
2004-03-11 13:15:56 51°10.813 2°40.108 4.860048 3.0519 31.563439 6.634819
2004-03-11 13:16:56 51°10.926 2°40.439 4.845562 3.046005 31.508488 6.60111
2004-03-11 13:17:56 51°11.047 2°40.766 4.844036 3.041267 31.455979 6.533691
2004-03-11 13:18:56 51°11.172 2°41.09 4.838292 3.03474 31.390464 6.668529
2004-03-11 13:19:56 51°11.301 2°41.413 4.832241 3.030003 31.34044 6.230306
2004-03-11 13:20:56 51°11.446 2°41.718 4.83397 3.026003 31.296362 6.398853
2004-03-11 13:21:56 51°11.594 2°42.021 4.823139 3.025266 31.293715 6.162888
2004-03-11 13:22:56 51°11.746 2°42.319 4.812407 3.022739 31.266482 6.466272
2004-03-11 13:23:56 51°11.898 2°42.621 4.810322 3.014528 31.185796 6.668529
2004-03-11 13:24:56 51°12.049 2°42.923 4.819986 3.00937 31.122732 6.398853
2004-03-11 13:25:56 51°12.155 2°43.272 4.822071 3.003791 31.049976 6.5674
2004-03-11 13:26:56 51°12.251 2°43.631 4.822274 2.99758 30.979055 6.499982
2004-03-11 13:27:56 51°12.345 2°43.992 4.809864 2.992632 30.9291 6.60111
2004-03-11 13:28:56 51°12.438 2°44.355 4.801623 2.987685 30.885655 6.432563
2004-03-11 13:29:56 51°12.529 2°44.719 4.803709 2.982843 30.83525 6.466272
2004-03-11 13:30:56 51°12.621 2°45.083 4.804421 2.980317 30.800716 6.769657
2004-03-11 13:31:56 51°12.713 2°45.447 4.815764 2.978632 30.774184 6.634819
2004-03-11 13:32:56 51°12.809 2°45.812 4.815764 2.978001 30.761297 6.803366
2004-03-11 13:33:56 51°12.921 2°46.164 4.816324 2.976106 30.741304 6.735947
2004-03-11 13:34:56 51°13.042 2°46.508 4.81968 2.974211 30.7205 6.702238
2004-03-11 13:35:56 51°13.179 2°46.835 4.815866 2.96779 30.642416 6.938204
2004-03-11 13:36:56 51°13.314 2°47.162 4.816324 2.962527 30.587254 6.769657
2004-03-11 13:37:56 51°13.448 2°47.49 4.815205 2.959369 30.548838 7.039332
2004-03-11 13:38:56 51°13.589 2°47.814 4.811288 2.952633 30.478496 7.14046
2004-03-11 13:39:56 51°13.735 2°48.132 4.808796 2.949791 30.450125 7.039332
2004-03-11 13:40:56 51°13.86 2°48.397 4.812713 2.949054 30.437713 7.241589
2004-03-11 13:41:56 51°13.923 2°48.457 4.81846 2.94958 30.444513 7.17417
2004-03-11 13:42:56 51°13.97 2°48.469 4.819782 2.950107 30.444889 7.342717
2004-03-11 13:43:56 51°14.038 2°48.485 4.812204 2.949686 30.444107 7.14046
2004-03-11 13:44:56 51°14.104 2°48.529 4.802946 2.948844 30.444148 7.443845
2004-03-11 13:45:56 51°14.157 2°48.595 4.795875 2.94916 30.454176 7.17417
2004-03-11 13:46:56 51°14.204 2°48.671 4.798367 2.949054 30.452976 6.904494
2004-03-11 13:47:56 51°14.246 2°48.753 4.801216 2.949791 30.45816 7.005623
2004-03-11 13:48:56 51°14.284 2°48.836 4.794654 2.948844 30.447361 6.904494
2004-03-11 13:49:56 51°14.323 2°48.92 4.786411 2.948318 30.44779 6.870785
2004-03-11 13:50:56 51°14.362 2°49.005 4.782085 2.948002 30.45062 6.837076
2004-03-11 13:51:56 51°14.401 2°49.09 4.784477 2.948739 30.462239 6.499982
2004-03-11 13:52:56 51°14.434 2°49.178 4.793534 2.950739 30.477003 6.837076
2004-03-11 13:53:56 51°14.469 2°49.27 4.798164 2.95337 30.502986 6.735947
2004-03-11 13:54:57 51°14.501 2°49.364 4.801115 2.954633 30.514169 7.106751
2004-03-11 13:55:56 51°14.529 2°49.459 4.80086 2.954107 30.506558 6.837076
2004-03-11 13:56:56 51°14.555 2°49.558 4.798724 2.954317 30.509763 6.837076
2004-03-11 13:57:56 51°14.584 2°49.657 4.796841 2.954107 30.508973 6.870785
2004-03-11 13:58:56 51°14.615 2°49.754 4.79328 2.953896 30.508183 6.735947
2004-03-11 13:59:56 51°14.647 2°49.849 4.791092 2.953159 30.500586 7.005623
2004-03-11 14:00:56 51°14.679 2°49.944 4.792975 2.953054 30.503411 6.870785
2004-03-11 14:01:56 51°14.714 2°50.039 4.788395 2.953159 30.504611 6.938204
2004-03-11 14:02:56 51°14.746 2°50.132 4.788548 2.953265 30.507422 7.039332
2004-03-11 14:03:56 51°14.78 2°50.224 4.787785 2.953791 30.513425 7.005623
2004-03-11 14:04:56 51°14.815 2°50.317 4.784935 2.954212 30.518227 7.005623
2004-03-11 14:05:56 51°14.849 2°50.412 4.788192 2.954528 30.521829 7.039332
2004-03-11 14:06:56 51°14.882 2°50.508 4.787378 2.956317 30.54224 6.803366
2004-03-11 14:07:56 51°14.915 2°50.605 4.790278 2.958528 30.565842 6.769657
2004-03-11 14:08:56 51°14.946 2°50.703 4.796994 2.960001 30.581846 6.5674
2004-03-11 14:09:56 51°14.974 2°50.801 4.79389 2.963159 30.616257 6.499982
2004-03-11 14:10:56 51°15.001 2°50.9 4.798367 2.964843 30.633856 6.196597
2004-03-11 14:11:56 51°15.03 2°51.003 4.799334 2.966001 30.64545 6.398853
2004-03-11 14:12:56 51°15.057 2°51.097 4.799588 2.966317 30.647435 6.432563
2004-03-11 14:13:56 51°15.079 2°51.18 4.804523 2.966317 30.645818 6.398853
2004-03-11 14:14:56 51°15.1 2°51.253 4.803455 2.966001 30.640598 6.061759
2004-03-11 14:15:56 51°15.12 2°51.321 4.81139 2.965054 30.627367 6.196597
2004-03-11 14:16:56 51°15.141 2°51.384 4.816832 2.964317 30.611693 6.129178
2004-03-11 14:17:56 51°15.158 2°51.453 4.823037 2.963896 30.600434 5.960631
2004-03-11 14:18:56 51°15.126 2°51.522 4.816832 2.963475 30.595634 5.960631
2004-03-11 14:19:56 51°15.104 2°51.455 4.811746 2.962843 30.596503 6.061759
2004-03-11 14:20:56 51°15.135 2°51.364 4.811797 2.961685 30.584107 6.02805
2004-03-11 14:21:56 51°15.181 2°51.332 4.808694 2.962843 30.600539 6.297725
2004-03-11 14:22:56 51°15.217 2°51.318 4.803506 2.964738 30.626189 6.196597
2004-03-11 14:23:56 51°15.238 2°51.308 4.808389 2.966633 30.645377 6.297725
2004-03-11 14:24:56 51°15.249 2°51.303 4.815764 2.96758 30.649715 5.926922
2004-03-11 14:25:56 51°15.252 2°51.304 4.835546 2.964632 30.59028 8.28658
2004-03-11 14:26:56 51°15.253 2°51.31 4.860353 2.963159 30.575102 6.432563
2004-03-11 14:27:56 51°15.254 2°51.317 4.880731 2.962948 30.564647 6.162888
2004-03-11 14:28:56 51°15.253 2°51.326 4.869298 2.963474 30.551323 6.365144
2004-03-11 14:29:56 51°15.25 2°51.339 4.867316 2.964316 30.550452 6.230306
2004-03-11 14:30:56 51°15.246 2°51.357 4.880731 2.964 30.553292 6.466272
2004-03-11 14:31:56 51°15.233 2°51.348 4.894041 2.962843 30.542525 6.5674
2004-03-11 14:32:56 51°15.264 2°51.307 4.835343 2.959053 30.521093 6.499982
2004-03-11 14:33:56 51°15.304 2°51.31 4.841037 2.958106 30.515933 6.365144
2004-03-11 14:34:56 51°15.342 2°51.324 4.820036 2.960317 30.548358 6.432563
2004-03-11 14:35:56 51°15.38 2°51.338 4.820545 2.963896 30.598013 6.466272
2004-03-11 14:36:56 51°15.468 2°51.355 4.83458 2.959264 30.550861 6.466272
2004-03-11 14:37:56 51°15.579 2°51.562 4.824919 2.958422 30.53643 6.432563
2004-03-11 14:38:56 51°15.648 2°51.906 4.818256 2.964106 30.600413 6.196597
2004-03-11 14:39:56 51°15.7 2°52.277 4.82324 2.969895 30.658336 5.792084
2004-03-11 14:40:56 51°15.754 2°52.648 4.846019 2.971158 30.658996 5.792084
2004-03-11 14:41:56 51°15.805 2°53.019 4.837987 2.970001 30.646609 6.02805
2004-03-11 14:42:56 51°15.835 2°53.392 4.840579 2.972527 30.678633 6.331435
2004-03-11 14:43:56 51°15.87 2°53.762 4.854559 2.962843 30.553788 5.859503
2004-03-11 14:44:56 51°15.906 2°54.13 4.847849 2.95558 30.476718 6.264016
2004-03-11 14:45:56 51°15.936 2°54.503 4.848815 2.938949 30.275488 6.230306
2004-03-11 14:46:56 51°15.957 2°54.876 4.836766 2.932423 30.214022 6.634819
2004-03-11 14:47:56 51°15.973 2°55.252 4.828224 2.931581 30.213998 6.769657
2004-03-11 14:48:56 51°15.971 2°55.5 4.837427 2.92695 30.168476 6.803366
2004-03-11 14:49:56 51°16.005 2°55.651 4.839817 2.922214 30.101113 6.466272
2004-03-11 14:50:56 51°16.05 2°55.765 4.826088 2.92274 30.117411 6.5674
2004-03-11 14:51:56 51°16.087 2°55.869 4.820443 2.922109 30.112611 6.499982
2004-03-11 14:52:57 51°16.118 2°55.968 4.823139 2.923056 30.127355 6.803366
2004-03-11 14:53:56 51°16.146 2°56.066 4.826292 2.923898 30.137727 6.938204
2004-03-11 14:54:56 51°16.182 2°56.165 4.830563 2.923898 30.118672 6.5674
2004-03-11 14:55:56 51°16.215 2°56.262 4.823698 2.925687 30.153313 6.769657
2004-03-11 14:56:56 51°16.244 2°56.357 4.826902 2.927477 30.175258 7.005623
2004-03-11 14:57:57 51°16.271 2°56.449 4.829393 2.928424 30.189218 6.938204
2004-03-11 14:58:56 51°16.299 2°56.545 4.829139 2.929476 30.195622 6.971913
2004-03-11 14:59:57 51°16.334 2°56.649 4.827258 2.930003 30.19763 6.803366
2004-03-11 15:00:56 51°16.37 2°56.754 4.831122 2.931792 30.219578 7.376426
2004-03-11 15:01:56 51°16.405 2°56.861 4.826139 2.932634 30.230752 7.309007
2004-03-11 15:02:56 51°16.437 2°56.96 4.826342 2.932318 30.227956 7.511264
2004-03-11 15:03:56 51°16.469 2°57.051 4.826088 2.932529 30.228757 7.646101
2004-03-11 15:04:56 51°16.502 2°57.135 4.82741 2.933371 30.240729 7.74723
2004-03-11 15:05:56 51°16.536 2°57.216 4.83219 2.934213 30.243137 7.915777
2004-03-11 15:06:56 51°16.569 2°57.299 4.831275 2.933581 30.235952 7.477554
2004-03-11 15:07:56 51°16.602 2°57.39 4.836665 2.93316 30.229569 7.342717
2004-03-11 15:08:56 51°16.633 2°57.486 4.839817 2.932108 30.216003 6.938204
2004-03-11 15:09:56 51°16.661 2°57.585 4.83702 2.931055 30.205623 6.971913
2004-03-11 15:10:56 51°16.687 2°57.683 4.832394 2.930424 30.200827 7.309007
2004-03-11 15:11:56 51°16.716 2°57.78 4.835343 2.929792 30.190461 7.646101
2004-03-11 15:12:56 51°16.748 2°57.883 4.839715 2.928108 30.175284 7.005623
2004-03-11 15:13:56 51°16.781 2°57.982 4.841139 2.925793 30.142593 6.769657
2004-03-11 15:14:56 51°16.812 2°58.068 4.839105 2.924003 30.120662 6.938204
2004-03-11 15:15:56 51°16.841 2°58.145 4.844138 2.92074 30.081985 6.870785
2004-03-11 15:16:56 51°16.863 2°58.278 4.842664 2.918951 30.061648 6.837076
2004-03-11 15:17:57 51°16.801 2°58.415 4.834173 2.915057 30.016601 6.735947
2004-03-11 15:18:56 51°16.733 2°58.353 4.82858 2.923898 30.132167 8.927059
2004-03-11 15:19:56 51°16.687 2°58.285 4.829139 2.923688 30.131361 9.230443
2004-03-11 15:20:56 51°16.652 2°58.293 4.8298 2.920425 30.092666 8.252871
2004-03-11 15:21:56 51°16.63 2°58.321 4.827461 2.917899 30.065527 7.983195
2004-03-11 15:22:56 51°16.618 2°58.351 4.818155 2.917057 30.055953 8.28658
2004-03-11 15:23:56 51°16.612 2°58.377 4.813781 2.914636 30.039515 8.85964
2004-03-11 15:24:56 51°16.596 2°58.387 4.807931 2.916741 30.053947 9.736084
2004-03-11 15:25:57 51°16.582 2°58.332 4.797808 2.914741 30.050221 11.151879
2004-03-11 15:26:56 51°16.597 2°58.305 4.801216 2.912636 30.027857 10.949623
2004-03-11 15:27:56 51°16.613 2°58.287 4.80493 2.914847 30.052211 11.11817
2004-03-11 15:28:57 51°16.624 2°58.271 4.808745 2.915268 30.049867 9.095606
2004-03-11 15:29:57 51°16.63 2°58.255 4.811797 2.917162 30.073004 8.353999
2004-03-11 15:30:56 51°16.63 2°58.238 4.807982 2.91853 30.086983 8.151742
2004-03-11 15:31:56 51°16.626 2°58.222 4.807575 2.919583 30.100545 8.118033
2004-03-11 15:32:56 51°16.619 2°58.205 4.809762 2.920846 30.114916 8.016905
2004-03-11 15:33:56 51°16.609 2°58.191 4.807931 2.921898 30.126893 7.949486
2004-03-11 15:34:56 51°16.596 2°58.179 4.809305 2.92274 30.13568 8.118033
2004-03-11 15:35:56 51°16.584 2°58.166 4.806202 2.922425 30.134471 7.983195
2004-03-11 15:36:56 51°16.564 2°58.142 4.801674 2.92232 30.134068 8.050614
2004-03-11 15:37:56 51°16.487 2°57.965 4.802285 2.924004 30.154824 8.82593
2004-03-11 15:38:57 51°16.388 2°57.676 4.805998 2.927477 30.194361 12.365418
2004-03-11 15:39:56 51°16.29 2°57.387 4.800657 2.932634 30.252281 12.635093
2004-03-11 15:40:56 51°16.189 2°57.095 4.805744 2.939265 30.327797 11.151879
2004-03-11 15:41:56 51°16.082 2°56.809 4.80025 2.941897 30.360974 10.983332
2004-03-11 15:42:56 51°15.978 2°56.52 4.810068 2.939792 30.343396 11.11817
2004-03-11 15:43:56 51°15.85 2°56.261 5.113255 0.056415 0.447618 2.185178
2004-03-11 15:44:56 51°15.695 2°56.048 5.240992 0.042487 0.33297 2.151469
2004-03-11 15:45:56 51°15.54 2°55.849 5.353949 0.036875 0.287141 2.08405
2004-03-11 15:46:56 51°15.39 2°55.661 5.458901 0.033965 0.263365 2.050341
2004-03-11 15:47:57 51°15.257 2°55.442 5.594079 0.031679 0.244691 1.949212
2004-03-11 15:48:57 51°15.127 2°55.22 5.712373 0.030847 0.237717 1.915503
2004-03-11 15:49:56 51°14.966 2°55.062 5.802863 0.030432 0.234088 1.848084
2004-03-11 15:50:57 51°14.784 2°54.926 5.928363 0.030224 0.232107 1.848084
2004-03-11 15:51:57 51°14.615 2°54.859 6.049475 0.030224 0.231789 1.814375
2004-03-11 15:52:56 51°14.494 2°54.929 6.14332 0.029912 0.228982 1.780665
2004-03-11 15:53:56 51°14.385 2°55.032 6.248909 0.0296 0.226185 1.814375